createdAt,value
2022-09-19T00:01:58.918Z,14.32
2022-09-19T00:04:31.650Z,14.37
2022-09-19T00:07:05.378Z,14.32
2022-09-19T00:09:36.826Z,14.38
2022-09-19T00:12:17.804Z,14.37
2022-09-19T00:14:45.115Z,14.33
2022-09-19T00:17:12.547Z,14.13
2022-09-19T00:19:39.838Z,14.22
2022-09-19T00:22:20.843Z,13.82
2022-09-19T00:24:50.082Z,14.26
2022-09-19T00:27:23.433Z,14.29
2022-09-19T00:29:52.007Z,14.17
2022-09-19T00:32:21.136Z,14.12
2022-09-19T00:34:50.481Z,14.09
2022-09-19T00:37:26.205Z,13.97
2022-09-19T00:39:57.456Z,13.99
2022-09-19T00:42:28.271Z,13.94
2022-09-19T00:45:13.950Z,13.97
2022-09-19T00:47:49.663Z,14.02
2022-09-19T00:50:29.534Z,14.03
2022-09-19T00:53:17.135Z,14.14
2022-09-19T00:55:50.167Z,13.69
2022-09-19T00:58:30.439Z,13.97
2022-09-19T01:01:04.099Z,13.94
2022-09-19T01:03:32.362Z,14.01
2022-09-19T01:06:45.035Z,13.90
2022-09-19T01:09:49.459Z,13.91
2022-09-19T01:12:38.728Z,13.97
2022-09-19T01:15:34.011Z,14.09
2022-09-19T01:18:09.644Z,13.99
2022-09-19T01:20:45.894Z,14.11
2022-09-19T01:23:49.452Z,14.00
2022-09-19T01:26:42.104Z,14.07
2022-09-19T01:29:21.835Z,14.07
2022-09-19T01:31:58.518Z,13.88
2022-09-19T01:34:36.288Z,14.00
2022-09-19T01:37:13.811Z,14.14
2022-09-19T01:40:06.762Z,13.99
2022-09-19T01:42:55.052Z,13.95
2022-09-19T01:45:35.429Z,14.01
2022-09-19T01:48:30.649Z,13.88
2022-09-19T01:51:36.557Z,13.79
2022-09-19T01:54:18.849Z,13.86
2022-09-19T01:58:01.778Z,13.82
2022-09-19T02:00:29.505Z,13.90
2022-09-19T02:03:49.528Z,13.91
2022-09-19T02:06:37.869Z,13.83
2022-09-19T02:09:33.995Z,13.91
2022-09-19T02:12:04.284Z,13.96
2022-09-19T02:14:44.629Z,13.88
2022-09-19T02:17:23.172Z,13.84
2022-09-19T02:20:00.181Z,13.75
2022-09-19T02:22:33.139Z,13.79
2022-09-19T02:25:06.462Z,13.84
2022-09-19T02:27:42.060Z,13.73
2022-09-19T02:30:13.173Z,13.93
2022-09-19T02:32:49.750Z,13.95
2022-09-19T02:35:36.124Z,13.85
2022-09-19T02:38:25.264Z,13.76
2022-09-19T02:41:22.828Z,13.84
2022-09-19T02:44:03.529Z,13.71
2022-09-19T02:46:53.488Z,13.79
2022-09-19T02:49:37.713Z,13.58
2022-09-19T02:52:13.177Z,13.80
2022-09-19T02:54:49.681Z,13.68
2022-09-19T02:57:30.972Z,13.68
2022-09-19T03:03:43.007Z,13.54
2022-09-19T03:06:21.583Z,13.66
2022-09-19T03:08:59.249Z,13.45
2022-09-19T03:11:36.083Z,13.63
2022-09-19T03:14:04.641Z,13.68
2022-09-19T03:16:37.911Z,13.52
2022-09-19T03:19:14.589Z,13.58
2022-09-19T03:21:43.152Z,13.40
2022-09-19T03:24:12.794Z,13.66
2022-09-19T03:26:40.243Z,13.75
2022-09-19T03:29:12.702Z,13.69
2022-09-19T03:31:57.926Z,13.63
2022-09-19T03:34:34.394Z,13.59
2022-09-19T03:37:05.012Z,13.43
2022-09-19T03:39:44.128Z,13.36
2022-09-19T03:42:18.581Z,13.53
2022-09-19T03:44:52.274Z,13.52
2022-09-19T03:47:23.531Z,13.44
2022-09-19T03:49:59.470Z,13.52
2022-09-19T03:52:35.363Z,13.57
2022-09-19T03:55:02.881Z,13.73
2022-09-19T03:57:36.142Z,13.88
2022-09-19T04:00:04.559Z,13.83
2022-09-19T04:02:44.251Z,13.70
2022-09-19T04:05:14.776Z,13.70
2022-09-19T04:07:53.330Z,13.71
2022-09-19T04:10:31.014Z,13.66
2022-09-19T04:12:58.996Z,13.53
2022-09-19T04:15:29.105Z,13.23
2022-09-19T04:17:57.880Z,13.35
2022-09-19T04:20:28.619Z,13.41
2022-09-19T04:23:08.314Z,13.48
2022-09-19T04:25:59.090Z,13.37
2022-09-19T04:28:40.771Z,13.23
2022-09-19T04:31:10.814Z,13.46
2022-09-19T04:33:38.526Z,13.35
2022-09-19T04:36:09.649Z,13.46
2022-09-19T04:38:38.358Z,13.35
2022-09-19T04:41:35.577Z,13.50
2022-09-19T04:44:05.561Z,13.50
2022-09-19T04:46:51.599Z,13.26
2022-09-19T04:49:19.585Z,13.62
2022-09-19T04:51:57.432Z,13.60
2022-09-19T04:54:28.470Z,13.62
2022-09-19T04:56:59.175Z,13.63
2022-09-19T04:59:31.141Z,13.64
2022-09-19T05:02:04.290Z,13.63
2022-09-19T05:04:34.877Z,13.61
2022-09-19T05:07:05.326Z,13.57
2022-09-19T05:09:34.251Z,13.56
2022-09-19T05:12:11.120Z,13.69
2022-09-19T05:14:42.269Z,13.83
2022-09-19T05:17:13.553Z,13.75
2022-09-19T05:19:41.440Z,13.90
2022-09-19T05:22:09.112Z,13.94
2022-09-19T05:24:39.176Z,13.88
2022-09-19T05:27:06.742Z,14.07
2022-09-19T05:29:47.303Z,14.17
2022-09-19T05:32:15.869Z,14.18
2022-09-19T05:34:53.797Z,14.27
2022-09-19T05:37:55.353Z,14.19
2022-09-19T05:41:02.460Z,14.36
2022-09-19T05:43:50.160Z,14.63
2022-09-19T05:46:31.100Z,14.62
2022-09-19T05:49:17.318Z,14.79
2022-09-19T05:51:48.717Z,14.75
2022-09-19T05:54:21.863Z,14.96
2022-09-19T05:57:10.108Z,15.00
2022-09-19T05:59:41.072Z,15.19
2022-09-19T06:02:14.518Z,15.23
2022-09-19T06:04:51.673Z,15.26
2022-09-19T06:07:20.368Z,15.41
2022-09-19T06:09:50.830Z,15.54
2022-09-19T06:12:18.358Z,15.84
2022-09-19T06:14:45.818Z,15.88
2022-09-19T06:17:17.762Z,16.16
2022-09-19T06:19:51.282Z,16.22
2022-09-19T06:22:38.895Z,16.30
2022-09-19T06:25:06.602Z,16.45
2022-09-19T06:27:34.374Z,16.47
2022-09-19T06:30:02.797Z,16.47
2022-09-19T06:32:40.325Z,16.59
2022-09-19T06:35:17.687Z,16.70
2022-09-19T06:37:46.038Z,16.83
2022-09-19T06:40:13.620Z,17.20
2022-09-19T06:42:43.681Z,17.27
2022-09-19T06:45:36.381Z,17.74
2022-09-19T06:48:15.549Z,17.89
2022-09-19T06:51:09.189Z,18.04
2022-09-19T06:53:36.581Z,18.06
2022-09-19T06:56:07.452Z,18.31
2022-09-19T06:58:35.713Z,18.21
2022-09-19T07:01:03.099Z,18.19
2022-09-19T07:03:35.089Z,18.35
2022-09-19T07:06:03.099Z,18.70
2022-09-19T07:08:41.459Z,19.13
2022-09-19T07:11:11.182Z,19.15
2022-09-19T07:13:41.971Z,19.43
2022-09-19T07:16:11.243Z,19.48
2022-09-19T07:18:39.389Z,19.77
2022-09-19T07:21:26.847Z,19.68
2022-09-19T07:23:57.664Z,19.63
2022-09-19T07:26:46.756Z,19.80
2022-09-19T07:29:17.983Z,20.07
2022-09-19T07:31:47.556Z,20.38
2022-09-19T07:34:17.863Z,20.67
2022-09-19T07:36:50.336Z,20.44
2022-09-19T07:39:23.677Z,20.51
2022-09-19T07:42:15.092Z,20.11
2022-09-19T07:45:07.277Z,20.41
2022-09-19T07:47:50.709Z,20.41
2022-09-19T07:50:23.682Z,20.65
2022-09-19T07:53:15.603Z,20.84
2022-09-19T07:55:43.840Z,20.87
2022-09-19T07:58:13.079Z,21.13
2022-09-19T08:00:52.053Z,21.29
2022-09-19T08:03:37.963Z,21.23
2022-09-19T08:06:05.590Z,21.57
2022-09-19T08:08:36.362Z,21.46
2022-09-19T08:11:11.433Z,21.24
2022-09-19T08:13:39.525Z,21.37
2022-09-19T08:16:07.604Z,21.57
2022-09-19T08:18:35.560Z,21.09
2022-09-19T08:21:02.922Z,21.41
2022-09-19T08:23:31.510Z,21.71
2022-09-19T08:26:04.074Z,21.91
2022-09-19T08:28:31.636Z,21.83
2022-09-19T08:31:02.186Z,21.52
2022-09-19T08:33:33.172Z,21.56
2022-09-19T08:36:00.926Z,21.88
2022-09-19T08:38:33.186Z,22.07
2022-09-19T08:41:26.749Z,22.03
2022-09-19T08:44:09.420Z,22.04
2022-09-19T08:46:43.721Z,21.96
2022-09-19T08:49:24.240Z,22.00
2022-09-19T08:52:02.434Z,21.99
2022-09-19T08:54:47.112Z,22.09
2022-09-19T08:57:27.446Z,22.41
2022-09-19T09:00:17.520Z,22.20
2022-09-19T09:03:11.954Z,22.04
2022-09-19T09:06:20.650Z,22.71
2022-09-19T09:09:08.323Z,22.74
2022-09-19T09:11:52.309Z,23.05
2022-09-19T09:14:30.641Z,22.98
2022-09-19T09:17:44.394Z,23.24
2022-09-19T09:20:33.271Z,22.98
2022-09-19T09:23:25.277Z,23.23
2022-09-19T09:26:11.873Z,23.18
2022-09-19T09:28:59.521Z,23.18
2022-09-19T09:31:48.622Z,22.84
2022-09-19T09:34:31.799Z,23.00
2022-09-19T09:37:14.126Z,22.94
2022-09-19T09:40:00.741Z,23.49
2022-09-19T09:42:39.442Z,23.47
2022-09-19T09:45:24.091Z,23.07
2022-09-19T09:47:56.474Z,23.33
2022-09-19T09:51:01.905Z,23.40
2022-09-19T09:53:42.642Z,23.59
2022-09-19T09:56:36.080Z,23.49
2022-09-19T09:59:06.286Z,23.82
2022-09-19T10:02:02.653Z,24.28
2022-09-19T10:04:56.539Z,24.46
2022-09-19T10:07:36.555Z,24.40
2022-09-19T10:10:18.058Z,24.50
2022-09-19T10:13:09.559Z,23.96
2022-09-19T10:15:43.347Z,24.04
2022-09-19T10:18:17.213Z,25.17
2022-09-19T10:20:55.295Z,25.52
2022-09-19T10:23:31.446Z,24.46
2022-09-19T10:26:16.397Z,24.40
2022-09-19T10:28:54.856Z,25.54
2022-09-19T10:31:41.484Z,25.34
2022-09-19T10:34:36.583Z,25.23
2022-09-19T10:37:31.340Z,24.34
2022-09-19T10:40:02.561Z,24.47
2022-09-19T10:42:41.663Z,25.27
2022-09-19T10:45:27.322Z,25.25
2022-09-19T10:48:04.043Z,24.81
2022-09-19T10:50:32.949Z,24.82
2022-09-19T10:53:19.213Z,25.01
2022-09-19T10:55:46.678Z,24.45
2022-09-19T10:58:28.297Z,24.76
2022-09-19T11:01:27.678Z,24.53
2022-09-19T11:04:04.016Z,24.99
2022-09-19T11:06:33.822Z,25.41
2022-09-19T11:09:24.610Z,25.88
2022-09-19T11:11:52.267Z,25.74
2022-09-19T11:14:36.895Z,25.89
2022-09-19T11:17:38.583Z,26.44
2022-09-19T11:20:20.157Z,26.18
2022-09-19T11:23:44.861Z,26.20
2022-09-19T11:26:19.161Z,25.48
2022-09-19T11:29:27.644Z,25.46
2022-09-19T11:35:12.859Z,25.44
2022-09-19T11:41:15.369Z,26.46
2022-09-19T11:44:07.429Z,27.64
2022-09-19T11:46:59.143Z,29.58
2022-09-19T11:49:39.512Z,28.89
2022-09-19T11:52:32.071Z,29.14
2022-09-19T11:55:05.369Z,29.80
2022-09-19T11:57:48.042Z,30.70
2022-09-19T12:00:20.420Z,28.33
2022-09-19T12:03:19.720Z,27.43
2022-09-19T12:06:42.820Z,27.26
2022-09-19T12:09:28.224Z,27.29
2022-09-19T12:12:13.424Z,26.76
2022-09-19T12:15:24.278Z,26.86
2022-09-19T12:18:05.166Z,26.97
2022-09-19T12:20:42.449Z,25.41
2022-09-19T12:23:42.624Z,24.75
2022-09-19T12:26:25.804Z,24.82
2022-09-19T12:29:17.373Z,24.36
2022-09-19T12:31:52.007Z,24.02
2022-09-19T12:35:00.912Z,24.48
2022-09-19T12:37:48.366Z,24.55
2022-09-19T12:40:19.098Z,25.16
2022-09-19T12:42:56.054Z,25.14
2022-09-19T12:45:34.094Z,24.96
2022-09-19T12:48:34.382Z,24.36
2022-09-19T12:51:55.137Z,24.05
2022-09-19T12:54:38.155Z,24.02
2022-09-19T12:57:13.374Z,24.47
2022-09-19T12:59:41.612Z,24.50
2022-09-19T13:02:20.213Z,24.90
2022-09-19T13:05:00.445Z,24.65
2022-09-19T13:07:50.700Z,24.26
2022-09-19T13:10:39.998Z,24.20
2022-09-19T13:13:39.069Z,25.19
2022-09-19T13:16:11.322Z,25.74
2022-09-19T13:19:04.205Z,25.69
2022-09-19T13:21:59.870Z,25.46
2022-09-19T13:24:43.007Z,25.24
2022-09-19T13:27:15.763Z,24.94
2022-09-19T13:29:46.463Z,24.91
2022-09-19T13:32:35.847Z,25.13
2022-09-19T13:35:07.207Z,25.55
2022-09-19T13:37:34.435Z,25.66
2022-09-19T13:40:17.547Z,25.45
2022-09-19T13:42:49.744Z,25.66
2022-09-19T13:45:39.605Z,25.83
2022-09-19T13:48:33.436Z,25.87
2022-09-19T13:51:15.679Z,25.46
2022-09-19T13:53:45.937Z,25.66
2022-09-19T13:56:33.881Z,25.12
2022-09-19T13:59:36.407Z,25.17
2022-09-19T14:02:19.709Z,25.06
2022-09-19T14:05:21.246Z,25.10
2022-09-19T14:10:46.670Z,25.24
2022-09-19T14:13:25.866Z,24.72
2022-09-19T14:15:56.364Z,24.90
2022-09-19T14:18:48.116Z,25.40
2022-09-19T14:21:27.571Z,25.11
2022-09-19T14:24:03.395Z,25.33
2022-09-19T14:27:19.889Z,25.47
2022-09-19T14:30:08.318Z,25.75
2022-09-19T14:32:50.315Z,25.67
2022-09-19T14:35:48.112Z,24.91
2022-09-19T14:38:30.272Z,25.10
2022-09-19T14:41:09.514Z,24.73
2022-09-19T14:44:01.946Z,24.84
2022-09-19T14:46:37.180Z,24.75
2022-09-19T14:49:10.306Z,24.81
2022-09-19T14:52:06.148Z,24.77
2022-09-19T14:54:48.402Z,24.97
2022-09-19T14:57:18.502Z,24.92
2022-09-19T14:59:45.927Z,24.53
2022-09-19T15:02:28.638Z,24.52
2022-09-19T15:05:03.096Z,24.65
2022-09-19T15:07:36.055Z,24.32
2022-09-19T15:10:19.869Z,24.25
2022-09-19T15:12:48.036Z,24.42
2022-09-19T15:15:17.021Z,24.49
2022-09-19T15:17:44.479Z,24.11
2022-09-19T15:20:16.927Z,24.15
2022-09-19T15:22:55.915Z,23.91
2022-09-19T15:25:37.446Z,23.81
2022-09-19T15:28:30.136Z,23.35
2022-09-19T15:31:02.011Z,23.28
2022-09-19T15:33:30.488Z,23.11
2022-09-19T15:36:00.911Z,23.14
2022-09-19T15:38:32.491Z,23.09
2022-09-19T15:41:02.269Z,22.97
2022-09-19T15:43:30.803Z,22.80
2022-09-19T15:46:27.134Z,22.82
2022-09-19T15:48:58.892Z,22.83
2022-09-19T15:51:54.874Z,22.83
2022-09-19T15:54:31.113Z,22.72
2022-09-19T15:57:01.371Z,22.63
2022-09-19T15:59:47.518Z,22.52
2022-09-19T16:02:19.058Z,22.42
2022-09-19T16:07:50.505Z,22.39
2022-09-19T16:10:33.740Z,22.31
2022-09-19T16:13:36.300Z,22.21
2022-09-19T16:16:30.282Z,22.01
2022-09-19T16:18:58.137Z,21.86
2022-09-19T16:21:36.378Z,21.78
2022-09-19T16:24:09.833Z,21.60
2022-09-19T16:26:37.917Z,21.59
2022-09-19T16:29:06.422Z,21.57
2022-09-19T16:31:38.581Z,21.50
2022-09-19T16:34:09.038Z,21.26
2022-09-19T16:36:50.786Z,21.19
2022-09-19T16:39:18.558Z,21.21
2022-09-19T16:41:57.760Z,21.18
2022-09-19T16:44:26.567Z,21.05
2022-09-19T16:47:08.462Z,20.96
2022-09-19T16:49:36.211Z,20.88
2022-09-19T16:52:05.585Z,20.91
2022-09-19T16:54:33.811Z,20.79
2022-09-19T16:57:02.618Z,20.75
2022-09-19T16:59:31.983Z,20.62
2022-09-19T17:01:59.307Z,20.66
2022-09-19T17:04:28.833Z,20.51
2022-09-19T17:06:56.322Z,20.48
2022-09-19T17:09:23.912Z,20.34
2022-09-19T17:11:51.592Z,20.21
2022-09-19T17:14:21.177Z,20.10
2022-09-19T17:16:49.159Z,20.18
2022-09-19T17:19:16.656Z,20.02
2022-09-19T17:21:43.968Z,19.87
2022-09-19T17:24:12.515Z,19.85
2022-09-19T17:26:41.344Z,19.84
2022-09-19T17:29:09.792Z,19.75
2022-09-19T17:31:37.248Z,19.65
2022-09-19T17:34:07.972Z,19.69
2022-09-19T17:36:37.786Z,19.69
2022-09-19T17:39:05.172Z,19.78
2022-09-19T17:41:35.654Z,19.65
2022-09-19T17:44:06.745Z,19.56
2022-09-19T17:46:34.957Z,19.51
2022-09-19T17:49:02.528Z,19.45
2022-09-19T17:51:30.011Z,19.34
2022-09-19T17:53:57.862Z,19.31
2022-09-19T17:56:27.221Z,19.34
2022-09-19T17:58:59.855Z,19.20
2022-09-19T18:01:47.099Z,19.18
2022-09-19T18:04:15.018Z,19.14
2022-09-19T18:06:42.512Z,18.95
2022-09-19T18:09:11.600Z,18.98
2022-09-19T18:11:41.344Z,18.98
2022-09-19T18:14:13.695Z,18.76
2022-09-19T18:16:44.532Z,18.79
2022-09-19T18:19:15.154Z,18.77
2022-09-19T18:21:42.493Z,18.69
2022-09-19T18:24:11.141Z,18.58
2022-09-19T18:26:39.323Z,18.66
2022-09-19T18:29:08.665Z,18.58
2022-09-19T18:31:36.334Z,18.41
2022-09-19T18:34:04.852Z,18.41
2022-09-19T18:36:32.717Z,18.36
2022-09-19T18:39:00.235Z,18.33
2022-09-19T18:41:28.320Z,18.20
2022-09-19T18:43:56.750Z,18.03
2022-09-19T18:46:26.247Z,18.08
2022-09-19T18:48:57.110Z,18.13
2022-09-19T18:51:27.319Z,18.18
2022-09-19T18:53:56.384Z,18.09
2022-09-19T18:56:24.075Z,17.99
2022-09-19T18:58:53.398Z,18.12
2022-09-19T19:01:22.591Z,18.10
2022-09-19T19:03:57.498Z,18.07
2022-09-19T19:06:26.285Z,18.01
2022-09-19T19:08:55.775Z,17.91
2022-09-19T19:11:25.778Z,17.97
2022-09-19T19:13:53.585Z,17.96
2022-09-19T19:16:24.257Z,17.74
2022-09-19T19:18:54.002Z,17.83
2022-09-19T19:21:24.328Z,17.59
2022-09-19T19:23:57.476Z,17.59
2022-09-19T19:26:26.274Z,17.46
2022-09-19T19:28:53.695Z,17.42
2022-09-19T19:31:21.991Z,17.38
2022-09-19T19:33:49.356Z,17.25
2022-09-19T19:36:19.091Z,17.17
2022-09-19T19:38:48.965Z,17.28
2022-09-19T19:41:24.326Z,17.17
2022-09-19T19:43:54.444Z,17.20
2022-09-19T19:46:27.838Z,17.10
2022-09-19T19:48:58.144Z,17.00
2022-09-19T19:51:28.305Z,17.00
2022-09-19T19:53:59.419Z,17.01
2022-09-19T19:56:29.495Z,16.98
2022-09-19T19:58:57.153Z,17.02
2022-09-19T20:01:31.273Z,16.93
2022-09-19T20:04:03.269Z,16.85
2022-09-19T20:06:36.179Z,16.71
2022-09-19T20:09:11.860Z,16.60
2022-09-19T20:11:40.257Z,16.61
2022-09-19T20:14:12.655Z,16.50
2022-09-19T20:16:42.692Z,16.49
2022-09-19T20:19:11.727Z,16.41
2022-09-19T20:21:42.130Z,16.29
2022-09-19T20:24:20.735Z,16.51
2022-09-19T20:26:50.205Z,16.56
2022-09-19T20:29:20.670Z,16.47
2022-09-19T20:31:48.130Z,16.20
2022-09-19T20:34:15.652Z,16.30
2022-09-19T20:36:43.157Z,16.31
2022-09-19T20:39:10.549Z,16.27
2022-09-19T20:41:38.218Z,16.21
2022-09-19T20:44:09.592Z,16.36
2022-09-19T20:46:38.377Z,16.39
2022-09-19T20:49:08.901Z,16.15
2022-09-19T20:51:39.323Z,16.35
2022-09-19T20:54:08.921Z,16.13
2022-09-19T20:56:36.574Z,16.08
2022-09-19T20:59:07.422Z,16.32
2022-09-19T21:01:37.403Z,16.35
2022-09-19T21:04:06.021Z,16.36
2022-09-19T21:06:34.287Z,16.31
2022-09-19T21:09:03.836Z,16.10
2022-09-19T21:11:32.535Z,16.13
2022-09-19T21:14:00.276Z,16.02
2022-09-19T21:16:30.298Z,15.99
2022-09-19T21:18:59.700Z,15.98
2022-09-19T21:21:31.792Z,15.96
2022-09-19T21:24:04.666Z,15.93
2022-09-19T21:26:34.564Z,15.87
2022-09-19T21:29:05.176Z,15.88
2022-09-19T21:31:35.065Z,15.79
2022-09-19T21:34:04.461Z,15.78
2022-09-19T21:36:34.223Z,15.76
2022-09-19T21:39:02.335Z,15.65
2022-09-19T21:41:31.115Z,15.62
2022-09-19T21:44:01.129Z,15.60
2022-09-19T21:46:31.441Z,15.64
2022-09-19T21:48:58.992Z,15.60
2022-09-19T21:51:29.819Z,15.58
2022-09-19T21:53:59.332Z,15.52
2022-09-19T21:56:28.877Z,15.43
2022-09-19T21:58:57.193Z,15.75
2022-09-19T22:01:27.115Z,15.65
2022-09-19T22:03:55.482Z,15.59
2022-09-19T22:06:24.133Z,15.71
2022-09-19T22:08:53.797Z,15.63
2022-09-19T22:11:28.680Z,15.62
2022-09-19T22:13:56.647Z,15.57
2022-09-19T22:16:24.126Z,15.55
2022-09-19T22:18:52.528Z,15.46
2022-09-19T22:21:24.578Z,15.52
2022-09-19T22:23:54.432Z,15.40
2022-09-19T22:26:24.464Z,15.48
2022-09-19T22:28:54.649Z,15.52
2022-09-19T22:31:24.670Z,15.53
2022-09-19T22:33:53.975Z,15.46
2022-09-19T22:36:24.221Z,15.34
2022-09-19T22:38:52.202Z,15.17
2022-09-19T22:41:20.518Z,15.18
2022-09-19T22:43:48.334Z,15.17
2022-09-19T22:46:18.335Z,15.33
2022-09-19T22:48:47.049Z,15.30
2022-09-19T22:51:18.899Z,15.26
2022-09-19T22:53:49.308Z,15.17
2022-09-19T22:56:24.926Z,15.20
2022-09-19T22:58:52.193Z,15.29
2022-09-19T23:01:24.214Z,15.22
2022-09-19T23:03:58.293Z,15.20
2022-09-19T23:06:29.274Z,15.08
2022-09-19T23:08:59.027Z,15.04
2022-09-19T23:11:29.413Z,15.04
2022-09-19T23:14:01.690Z,14.97
2022-09-19T23:16:34.912Z,14.95
2022-09-19T23:19:04.809Z,14.92
2022-09-19T23:21:36.312Z,15.00
2022-09-19T23:24:06.139Z,15.05
2022-09-19T23:26:34.098Z,15.02
2022-09-19T23:29:03.413Z,15.00
2022-09-19T23:31:31.672Z,14.89
2022-09-19T23:33:59.082Z,14.81
2022-09-19T23:36:26.847Z,14.91
2022-09-19T23:38:55.605Z,14.89
2022-09-19T23:41:24.469Z,14.86
2022-09-19T23:43:52.223Z,14.92
2022-09-19T23:46:21.979Z,15.02
2022-09-19T23:48:50.477Z,15.09
2022-09-19T23:51:19.543Z,15.09
2022-09-19T23:53:46.824Z,15.03
2022-09-19T23:56:14.306Z,15.03
2022-09-19T23:58:41.788Z,15.02
